EW6709 Weather Reports


Display with metric or nautical units.
time (UTC)temp
F
wind
direction
speed
MPH
gust
MPH
rain 1hr
in
rain 24hr
in
rain mn
in
humidity
%
barometer
mb
20260906120046 72 63 0.0 1.0 0.00 0.03 0.01 73 1013.1
20260906114542 72 106 0.0 0.0 0.00 0.03 0.01 73 1013.1
20260906113041 72 204 0.0 0.0 0.00 0.03 0.01 73 1012.8
20260906111540 72 204 0.0 0.0 0.00 0.03 0.01 73 1012.7
20260906110037 72 204 0.0 0.0 0.00 0.03 0.01 73 1012.4
20260906104535 72 204 0.0 0.0 0.00 0.03 0.01 73 1012.3
20260906103034 72 204 0.0 0.0 0.00 0.03 0.01 74 1012.2
20260906101533 72 204 0.0 0.0 0.00 0.03 0.01 74 1012.2
20260906100038 72 204 0.0 0.0 0.00 0.03 0.01 74 1012.0
20260906094531 72 204 0.0 0.0 0.00 0.03 0.01 74 1011.7
20260906093044 72 204 0.0 0.0 0.00 0.03 0.01 74 1011.4
20260906091529 71 204 0.0 0.0 0.00 0.03 0.01 74 1011.3
20260906090029 71 204 0.0 0.0 0.00 0.03 0.01 74 1011.3
20260906084527 71 204 0.0 0.0 0.00 0.03 0.01 75 1011.1
20260906083026 70 204 0.0 0.0 0.00 0.03 0.01 75 1011.1
20260906081543 70 204 0.0 0.0 0.00 0.03 0.01 76 1011.1
20260906080024 70 204 0.0 0.0 0.00 0.03 0.01 76 1010.7
20260906074522 70 204 0.0 0.0 0.00 0.03 0.01 76 1010.6
20260906073036 70 204 0.0 0.0 0.00 0.03 0.01 76 1010.5
20260906071520 70 204 0.0 0.0 0.01 0.03 0.01 76 1010.5
20260906070024 70 204 0.0 0.0 0.01 0.03 0.01 76 1010.7
20260906064518 70 204 0.0 0.0 0.01 0.03 0.01 76 1010.7
20260906063014 71 204 0.0 0.0 0.01 0.03 0.01 76 1011.0
20260906061512 71 204 0.0 0.0 0.00 0.02 0.00 76 1010.8
20260906060011 71 204 0.0 0.0 0.00 0.02 0.00 76 1010.9
20260906054509 71 204 0.0 0.0 0.00 0.02 0.00 76 1011.3
20260906053007 71 204 0.0 0.0 0.00 0.02 0.00 77 1011.4
20260906051503 71 204 0.0 0.0 0.00 0.02 0.00 77 1011.6
20260906050002 72 204 0.0 0.0 0.00 0.02 0.00 77 1011.7
20260906044559 72 204 0.0 0.0 0.00 0.02 0.00 77 1011.7
20260906043109 72 204 0.0 0.0 0.00 0.02 0.00 77 1011.9
20260906041555 72 204 0.0 0.0 0.00 0.02 0.00 77 1012.0
20260906040111 72 204 0.0 0.0 0.00 0.02 0.00 77 1012.0
20260906034552 73 204 0.0 0.0 0.00 0.02 0.02 77 1012.0
20260906033052 73 204 0.0 0.0 0.00 0.02 0.02 77 1012.1
20260906031551 73 204 0.0 0.0 0.00 0.02 0.02 77 1012.0
20260906030055 73 204 0.0 0.0 0.00 0.02 0.02 77 1011.7
20260906024549 73 204 0.0 0.0 0.00 0.02 0.02 77 1011.5
20260906023104 73 204 0.0 0.0 0.00 0.02 0.02 78 1011.7
20260906021549 73 204 0.0 0.0 0.00 0.02 0.02 78 1011.6
20260906020048 73 204 0.0 0.0 0.00 0.02 0.02 78 1011.4
20260906014559 73 204 0.0 0.0 0.00 0.02 0.02 78 1011.5
20260906013047 74 204 0.0 0.0 0.00 0.02 0.02 78 1011.5
20260906011554 74 204 0.0 0.0 0.00 0.02 0.02 78 1011.3
20260906010047 74 204 0.0 0.0 0.00 0.02 0.02 78 1011.2
20260906004546 74 204 0.0 0.0 0.00 0.02 0.02 78 1011.2
20260906003051 75 204 0.0 0.0 0.00 0.02 0.02 78 1011.0
20260906001545 75 204 0.0 0.0 0.00 0.02 0.02 79 1011.0
20260906000047 76 204 0.0 0.0 0.00 0.02 0.02 78 1010.8
20260905234553 76 204 0.0 0.0 0.00 0.02 0.02 79 1010.6
20260905233044 76 204 0.0 0.0 0.00 0.02 0.02 79 1010.3
20260905231543 76 204 0.0 0.0 0.00 0.02 0.02 78 1010.1
20260905230044 76 88 0.0 0.0 0.00 0.02 0.02 78 1009.8
20260905224548 76 92 0.0 0.0 0.00 0.02 0.02 78 1009.4
20260905223041 76 92 0.0 0.0 0.00 0.02 0.02 78 1009.4
20260905221542 76 92 0.0 0.0 0.00 0.02 0.02 79 1010.1
20260905220040 76 92 0.0 0.0 0.00 0.02 0.02 79 1010.2
20260905214539 76 92 0.0 0.0 0.01 0.02 0.02 79 1010.2
20260905213039 76 92 0.0 0.0 0.01 0.02 0.02 79 1009.7
20260905211538 76 92 0.0 0.0 0.01 0.02 0.02 80 1009.7
20260905210038 76 92 0.0 0.0 0.02 0.02 0.02 80 1009.7
20260905204538 78 92 0.0 0.0 0.01 0.01 0.01 80 1009.6
20260905203037 79 92 0.0 0.0 0.01 0.01 0.01 78 1009.5
20260905201538 82 70 0.0 5.0 0.01 0.01 0.01 72 1009.3
20260905200046 83 118 0.0 11.0 0.00 0.00 0.00 67 1009.9
20260905194535 87 130 1.0 12.0 0.00 0.00 0.00 62 1010.4
20260905193035 93 15 0.0 10.0 0.00 0.00 0.00 55 1009.9
20260905191538 94 200 0.0 1.0 0.00 0.00 0.00 53 1009.0
20260905190046 95 207 0.0 3.0 0.00 0.00 0.00 52 1008.8
20260905184543 96 66 0.0 4.0 0.00 0.00 0.00 48 1009.0
20260905183032 96 42 0.0 9.0 0.00 0.00 0.00 50 1009.1
20260905181531 96 231 2.0 7.0 0.00 0.00 0.00 48 1009.5
20260905180026 96 136 0.0 2.0 0.00 0.00 0.00 51 1009.8
20260905174522 96 254 0.0 6.0 0.00 0.00 0.00 54 1010.3
20260905173022 96 88 0.0 4.0 0.00 0.00 0.00 52 1010.7
20260905171517 95 199 0.0 4.0 0.00 0.00 0.00 53 1010.8
20260905170013 94 303 0.0 3.0 0.00 0.00 0.00 55 1011.2
20260905164509 93 192 0.0 4.0 0.00 0.00 0.00 57 1011.3
20260905163010 93 209 1.0 5.0 0.00 0.00 0.00 58 1011.4
20260905161504 93 113 0.0 4.0 0.00 0.00 0.00 58 1011.7
20260905160122 91 231 0.0 4.0 0.00 0.00 0.00 63 1011.9
20260905154557 91 252 0.0 1.0 0.00 0.00 0.00 62 1012.2
20260905153101 90 241 0.0 2.0 0.00 0.00 0.00 65 1012.4
20260905151550 89 252 0.0 0.0 0.00 0.00 0.00 69 1012.5
20260905150047 88 232 0.0 5.0 0.00 0.00 0.00 69 1012.5
20260905144547 86 210 0.0 4.0 0.00 0.00 0.00 71 1012.5
20260905143040 86 215 0.0 4.0 0.00 0.00 0.00 72 1012.5
20260905141536 85 240 0.0 2.0 0.00 0.00 0.00 73 1012.4
20260905140032 84 208 0.0 2.0 0.00 0.00 0.00 75 1012.3
20260905134529 83 219 0.0 0.0 0.00 0.00 0.00 76 1012.3
20260905133031 82 268 0.0 1.0 0.00 0.00 0.00 79 1012.4
20260905131530 80 206 0.0 3.0 0.00 0.00 0.00 79 1012.4
20260905130032 79 231 0.0 2.0 0.00 0.00 0.00 80 1012.4
20260905124515 78 200 0.0 0.0 0.00 0.00 0.00 79 1012.7
20260905123014 77 200 0.0 0.0 0.00 0.00 0.00 79 1012.7
20260905121512 75 186 0.0 0.0 0.00 0.00 0.00 78 1012.6